createdAt,value
2022-09-06T00:00:58.911Z,6.30
2022-09-06T00:03:25.911Z,6.30
2022-09-06T00:05:52.535Z,6.85
2022-09-06T00:08:19.851Z,6.47
2022-09-06T00:10:46.601Z,7.00
2022-09-06T00:13:13.238Z,6.32
2022-09-06T00:15:40.352Z,6.13
2022-09-06T00:18:08.028Z,6.07
2022-09-06T00:20:35.102Z,7.30
2022-09-06T00:23:04.582Z,7.13
2022-09-06T00:25:32.407Z,7.13
2022-09-06T00:28:04.737Z,7.18
2022-09-06T00:30:32.978Z,6.70
2022-09-06T00:33:00.155Z,7.70
2022-09-06T00:35:27.844Z,7.30
2022-09-06T00:38:01.823Z,7.57
2022-09-06T00:40:30.561Z,7.38
2022-09-06T00:42:57.959Z,7.10
2022-09-06T00:45:28.005Z,6.88
2022-09-06T00:47:55.076Z,6.97
2022-09-06T00:50:22.324Z,6.75
2022-09-06T00:52:51.106Z,6.50
2022-09-06T00:55:18.486Z,6.38
2022-09-06T00:57:45.586Z,6.22
2022-09-06T01:00:13.655Z,6.93
2022-09-06T01:02:40.390Z,6.78
2022-09-06T01:05:07.570Z,6.60
2022-09-06T01:07:48.290Z,7.82
2022-09-06T01:10:47.858Z,6.70
2022-09-06T01:13:24.535Z,7.50
2022-09-06T01:16:00.238Z,8.27
2022-09-06T01:18:47.414Z,7.47
2022-09-06T01:21:32.259Z,7.30
2022-09-06T01:24:35.036Z,6.70
2022-09-06T01:27:30.857Z,6.60
2022-09-06T01:30:09.956Z,6.70
2022-09-06T01:33:09.625Z,7.60
2022-09-06T01:35:50.366Z,7.45
2022-09-06T01:38:17.441Z,6.90
2022-09-06T01:40:44.099Z,7.40
2022-09-06T01:43:18.065Z,8.43
2022-09-06T01:45:51.003Z,7.45
2022-09-06T01:48:30.088Z,8.23
2022-09-06T01:51:13.198Z,7.55
2022-09-06T01:54:08.678Z,7.22
2022-09-06T01:56:59.871Z,7.22
2022-09-06T01:59:41.719Z,7.05
2022-09-06T02:02:14.537Z,6.75
2022-09-06T02:04:51.017Z,7.40
2022-09-06T02:07:23.429Z,7.13
2022-09-06T02:09:55.974Z,7.50
2022-09-06T02:12:26.808Z,7.25
2022-09-06T02:15:00.100Z,7.72
2022-09-06T02:17:35.619Z,8.25
2022-09-06T02:20:08.536Z,8.43
2022-09-06T02:22:41.589Z,8.60
2022-09-06T02:25:13.131Z,9.02
2022-09-06T02:27:40.045Z,9.00
2022-09-06T02:30:07.122Z,8.82
2022-09-06T02:32:40.951Z,8.55
2022-09-06T02:35:14.832Z,8.15
2022-09-06T02:37:43.271Z,9.30
2022-09-06T02:40:10.910Z,8.45
2022-09-06T02:42:39.005Z,8.75
2022-09-06T02:45:06.248Z,9.77
2022-09-06T02:47:32.880Z,9.02
2022-09-06T02:49:59.467Z,9.40
2022-09-06T02:52:26.308Z,8.55
2022-09-06T02:54:52.910Z,8.70
2022-09-06T02:57:19.508Z,9.05
2022-09-06T02:59:46.211Z,8.80
2022-09-06T03:02:12.926Z,9.18
2022-09-06T03:04:39.591Z,9.27
2022-09-06T03:07:06.277Z,9.20
2022-09-06T03:09:32.879Z,9.73
2022-09-06T03:11:59.529Z,10.13
2022-09-06T03:14:26.141Z,10.15
2022-09-06T03:16:52.861Z,9.50
2022-09-06T03:19:19.549Z,9.48
2022-09-06T03:21:46.452Z,9.60
2022-09-06T03:24:13.029Z,8.95
2022-09-06T03:26:39.673Z,9.63
2022-09-06T03:29:06.290Z,8.68
2022-09-06T03:31:32.993Z,9.43
2022-09-06T03:33:59.574Z,9.15
2022-09-06T03:36:26.378Z,10.13
2022-09-06T03:38:53.028Z,10.38
2022-09-06T03:41:20.145Z,10.57
2022-09-06T03:43:46.836Z,9.52
2022-09-06T03:46:13.514Z,10.75
2022-09-06T03:48:40.161Z,9.80
2022-09-06T03:51:06.833Z,10.00
2022-09-06T03:53:33.470Z,9.18
2022-09-06T03:56:03.694Z,9.60
2022-09-06T03:58:32.214Z,9.73
2022-09-06T04:01:08.228Z,10.55
2022-09-06T04:03:35.835Z,9.50
2022-09-06T04:06:03.165Z,9.15
2022-09-06T04:08:30.318Z,9.73
2022-09-06T04:10:58.309Z,10.02
2022-09-06T04:13:26.535Z,8.52
2022-09-06T04:15:53.598Z,8.80
2022-09-06T04:18:21.544Z,8.32
2022-09-06T04:20:49.460Z,8.55
2022-09-06T04:23:16.925Z,8.43
2022-09-06T04:25:52.597Z,9.20
2022-09-06T04:28:20.155Z,9.05
2022-09-06T04:31:04.298Z,8.95
2022-09-06T04:33:33.396Z,9.45
2022-09-06T04:36:02.954Z,8.50
2022-09-06T04:38:34.503Z,9.00
2022-09-06T04:41:01.183Z,8.63
2022-09-06T04:43:28.095Z,9.70
2022-09-06T04:45:54.786Z,9.10
2022-09-06T04:48:21.414Z,9.20
2022-09-06T04:50:48.173Z,9.10
2022-09-06T04:53:14.789Z,8.77
2022-09-06T04:55:41.497Z,9.20
2022-09-06T04:58:08.200Z,10.00
2022-09-06T05:00:35.281Z,9.13
2022-09-06T05:03:01.891Z,9.10
2022-09-06T05:05:28.714Z,9.18
2022-09-06T05:07:56.194Z,9.45
2022-09-06T05:10:23.766Z,9.52
2022-09-06T05:12:52.211Z,9.10
2022-09-06T05:15:20.832Z,9.00
2022-09-06T05:17:47.470Z,8.82
2022-09-06T05:20:14.719Z,10.02
2022-09-06T05:22:41.590Z,9.38
2022-09-06T05:25:09.732Z,9.30
2022-09-06T05:27:36.602Z,9.43
2022-09-06T05:30:04.625Z,9.93
2022-09-06T05:32:31.215Z,9.75
2022-09-06T05:34:57.952Z,10.05
2022-09-06T05:37:24.595Z,9.73
2022-09-06T05:39:52.096Z,8.65
2022-09-06T05:42:19.482Z,8.88
2022-09-06T05:44:46.243Z,9.82
2022-09-06T05:47:13.058Z,11.38
2022-09-06T05:49:39.795Z,9.63
2022-09-06T05:52:06.369Z,8.77
2022-09-06T05:54:32.970Z,9.88
2022-09-06T05:56:59.608Z,9.60
2022-09-06T05:59:26.320Z,9.13
2022-09-06T06:01:53.675Z,10.27
2022-09-06T06:04:21.497Z,10.32
2022-09-06T06:06:48.251Z,11.48
2022-09-06T06:09:15.807Z,11.20
2022-09-06T06:11:42.923Z,10.25
2022-09-06T06:14:09.905Z,8.63
2022-09-06T06:16:36.920Z,10.18
2022-09-06T06:19:03.759Z,10.98
2022-09-06T06:21:32.075Z,10.30
2022-09-06T06:24:01.356Z,10.90
2022-09-06T06:26:30.057Z,10.95
2022-09-06T06:28:57.053Z,10.32
2022-09-06T06:31:23.685Z,10.25
2022-09-06T06:33:50.706Z,10.85
2022-09-06T06:36:17.222Z,11.43
2022-09-06T06:38:45.452Z,11.35
2022-09-06T06:41:17.105Z,11.93
2022-09-06T06:43:44.155Z,11.93
2022-09-06T06:46:16.180Z,11.65
2022-09-06T06:48:44.519Z,10.95
2022-09-06T06:51:14.363Z,11.63
2022-09-06T06:53:41.042Z,11.35
2022-09-06T06:56:23.051Z,12.02
2022-09-06T06:58:51.677Z,11.27
2022-09-06T07:01:20.156Z,10.90
2022-09-06T07:03:47.346Z,10.02
2022-09-06T07:06:15.145Z,10.27
2022-09-06T07:08:42.587Z,10.20
2022-09-06T07:11:11.242Z,10.32
2022-09-06T07:13:37.986Z,8.93
2022-09-06T07:16:24.320Z,7.55
2022-09-06T07:18:54.854Z,7.18
2022-09-06T07:21:39.209Z,7.05
2022-09-06T07:24:07.496Z,7.20
2022-09-06T07:26:35.639Z,7.95
2022-09-06T07:29:06.141Z,7.18
2022-09-06T07:34:20.137Z,9.13
2022-09-06T07:36:46.743Z,8.63
2022-09-06T07:39:13.389Z,7.93
2022-09-06T07:41:39.955Z,8.63
2022-09-06T07:44:06.667Z,8.75
2022-09-06T07:46:33.325Z,8.38
2022-09-06T07:49:00.113Z,8.88
2022-09-06T07:51:26.733Z,8.98
2022-09-06T07:54:07.370Z,9.50
2022-09-06T07:56:41.742Z,8.00
2022-09-06T07:59:08.297Z,8.35
2022-09-06T08:01:36.700Z,8.02
2022-09-06T08:04:08.979Z,8.80
2022-09-06T08:09:24.411Z,8.48
2022-09-06T08:11:50.986Z,8.38
2022-09-06T08:14:17.621Z,8.50
2022-09-06T08:16:44.364Z,7.75
2022-09-06T08:19:11.110Z,7.95
2022-09-06T08:21:38.425Z,7.72
2022-09-06T08:24:07.615Z,7.93
2022-09-06T08:26:36.340Z,7.82
2022-09-06T08:29:05.245Z,7.72
2022-09-06T08:31:33.202Z,7.32
2022-09-06T08:34:01.028Z,7.78
2022-09-06T08:36:28.432Z,8.15
2022-09-06T08:39:00.411Z,7.82
2022-09-06T08:41:50.082Z,7.63
2022-09-06T08:47:22.086Z,7.45
2022-09-06T08:49:56.770Z,8.32
2022-09-06T08:52:45.324Z,8.00
2022-09-06T08:55:36.434Z,8.77
2022-09-06T08:58:17.148Z,8.57
2022-09-06T09:00:52.298Z,9.13
2022-09-06T09:03:23.207Z,9.25
2022-09-06T09:05:53.405Z,8.60
2022-09-06T09:08:28.715Z,9.57
2022-09-06T09:11:02.874Z,9.13
2022-09-06T09:13:47.679Z,7.68
2022-09-06T09:16:15.631Z,6.78
2022-09-06T09:18:49.595Z,7.13
2022-09-06T09:21:21.374Z,6.47
2022-09-06T09:23:57.208Z,6.95
2022-09-06T09:26:26.351Z,5.60
2022-09-06T09:29:02.940Z,6.00
2022-09-06T09:31:41.898Z,5.30
2022-09-06T09:34:14.912Z,5.20
2022-09-06T09:39:35.819Z,4.32
2022-09-06T09:42:02.499Z,4.53
2022-09-06T09:44:29.254Z,4.25
2022-09-06T09:46:56.130Z,4.32
2022-09-06T09:49:22.687Z,4.10
2022-09-06T09:52:04.635Z,3.92
2022-09-06T09:54:36.192Z,3.65
2022-09-06T09:57:11.570Z,3.30
2022-09-06T09:59:46.912Z,3.60
2022-09-06T10:02:31.114Z,3.20
2022-09-06T10:05:14.415Z,3.00
2022-09-06T10:07:48.007Z,3.50
2022-09-06T10:10:20.832Z,3.60
2022-09-06T10:12:47.645Z,3.60
2022-09-06T10:15:34.345Z,3.80
2022-09-06T10:18:01.058Z,3.40
2022-09-06T10:20:42.340Z,3.45
2022-09-06T10:26:29.108Z,3.38
2022-09-06T10:29:05.999Z,3.13
2022-09-06T10:31:46.593Z,3.03
2022-09-06T10:34:38.861Z,3.50
2022-09-06T10:37:14.631Z,3.25
2022-09-06T10:40:02.634Z,3.10
2022-09-06T10:42:35.298Z,3.40
2022-09-06T10:45:28.459Z,3.65
2022-09-06T10:48:14.482Z,3.40
2022-09-06T10:51:00.034Z,3.58
2022-09-06T10:54:06.995Z,3.45
2022-09-06T10:56:41.864Z,3.20
2022-09-06T11:02:32.578Z,3.40
2022-09-06T11:10:49.567Z,3.20
2022-09-06T11:13:18.627Z,3.08
2022-09-06T11:16:08.235Z,4.80
2022-09-06T11:18:42.510Z,2.70
2022-09-06T11:21:21.488Z,3.33
2022-09-06T11:23:52.999Z,3.20
2022-09-06T11:26:25.871Z,3.00
2022-09-06T11:28:55.899Z,2.90
2022-09-06T11:34:22.685Z,3.45
2022-09-06T11:37:01.329Z,3.45
2022-09-06T11:42:43.845Z,3.22
2022-09-06T11:45:10.521Z,3.40
2022-09-06T11:47:48.582Z,2.92
2022-09-06T11:51:10.995Z,3.22
2022-09-06T11:53:50.018Z,3.28
2022-09-06T11:56:40.655Z,2.90
2022-09-06T11:59:32.340Z,2.83
2022-09-06T12:02:01.748Z,3.15
2022-09-06T12:05:00.358Z,2.97
2022-09-06T12:07:28.928Z,3.10
2022-09-06T12:09:55.552Z,3.13
2022-09-06T12:12:42.525Z,2.95
2022-09-06T12:15:24.534Z,2.90
2022-09-06T12:17:51.371Z,3.10
2022-09-06T12:20:48.915Z,2.70
2022-09-06T12:23:34.468Z,2.80
2022-09-06T12:26:12.242Z,4.40
2022-09-06T12:28:51.613Z,2.67
2022-09-06T12:31:28.611Z,2.90
2022-09-06T12:33:57.152Z,2.42
2022-09-06T12:36:31.644Z,2.70
2022-09-06T12:39:03.112Z,2.85
2022-09-06T12:41:38.395Z,2.97
2022-09-06T12:44:09.055Z,2.80
2022-09-06T12:46:36.240Z,3.00
2022-09-06T12:49:09.391Z,3.00
2022-09-06T12:51:38.402Z,2.95
2022-09-06T12:54:23.336Z,3.00
2022-09-06T12:56:51.468Z,2.80
2022-09-06T12:59:23.740Z,2.58
2022-09-06T13:01:50.729Z,2.80
2022-09-06T13:04:29.194Z,2.85
2022-09-06T13:06:57.117Z,2.80
2022-09-06T13:09:25.269Z,2.60
2022-09-06T13:11:52.900Z,3.30
2022-09-06T13:14:26.039Z,3.05
2022-09-06T13:16:55.091Z,2.88
2022-09-06T13:19:51.140Z,2.90
2022-09-06T13:22:47.686Z,3.20
2022-09-06T13:25:20.462Z,3.30
2022-09-06T13:27:55.764Z,3.08
2022-09-06T13:30:37.508Z,3.22
2022-09-06T13:33:07.231Z,5.13
2022-09-06T13:35:37.180Z,3.28
2022-09-06T13:38:33.754Z,2.78
2022-09-06T13:41:16.909Z,3.08
2022-09-06T13:43:45.744Z,2.90
2022-09-06T13:46:12.526Z,2.90
2022-09-06T13:48:39.696Z,2.60
2022-09-06T13:51:07.709Z,3.40
2022-09-06T13:53:34.902Z,2.60
2022-09-06T13:56:02.174Z,2.83
2022-09-06T13:58:28.955Z,3.33
2022-09-06T14:00:56.029Z,2.80
2022-09-06T14:03:27.126Z,3.05
2022-09-06T14:05:54.078Z,3.20
2022-09-06T14:08:20.978Z,2.70
2022-09-06T14:10:47.925Z,3.15
2022-09-06T14:13:18.781Z,2.63
2022-09-06T14:15:49.953Z,2.50
2022-09-06T14:18:17.396Z,2.75
2022-09-06T14:20:52.757Z,2.70
2022-09-06T14:23:19.957Z,2.30
2022-09-06T14:25:46.919Z,2.70
2022-09-06T14:28:13.642Z,2.88
2022-09-06T14:30:40.340Z,2.70
2022-09-06T14:33:07.072Z,2.70
2022-09-06T14:35:34.047Z,2.47
2022-09-06T14:38:00.770Z,2.80
2022-09-06T14:40:27.586Z,2.50
2022-09-06T14:42:54.400Z,2.72
2022-09-06T14:45:21.029Z,2.60
2022-09-06T14:47:47.781Z,2.70
2022-09-06T14:50:14.494Z,2.70
2022-09-06T14:52:41.235Z,2.38
2022-09-06T14:55:12.398Z,2.60
2022-09-06T14:57:46.029Z,2.50
2022-09-06T15:00:13.453Z,2.40
2022-09-06T15:02:40.383Z,2.67
2022-09-06T15:05:07.531Z,2.58
2022-09-06T15:07:34.215Z,2.55
2022-09-06T15:10:00.987Z,2.50
2022-09-06T15:12:27.656Z,2.17
2022-09-06T15:14:54.351Z,2.47
2022-09-06T15:17:20.993Z,2.40
2022-09-06T15:19:47.762Z,2.40
2022-09-06T15:22:14.416Z,2.60
2022-09-06T15:24:41.158Z,2.78
2022-09-06T15:27:07.905Z,2.78
2022-09-06T15:29:34.663Z,2.78
2022-09-06T15:32:01.409Z,2.70
2022-09-06T15:34:28.615Z,2.75
2022-09-06T15:36:55.315Z,2.65
2022-09-06T15:39:22.057Z,2.80
2022-09-06T15:41:50.335Z,2.70
2022-09-06T15:44:18.944Z,2.53
2022-09-06T15:46:49.847Z,2.90
2022-09-06T15:49:24.398Z,2.92
2022-09-06T15:51:54.905Z,3.00
2022-09-06T15:54:22.127Z,3.00
2022-09-06T15:56:48.879Z,3.10
2022-09-06T15:59:15.502Z,3.10
2022-09-06T16:01:42.382Z,3.15
2022-09-06T16:04:09.084Z,3.10
2022-09-06T16:06:40.563Z,3.30
2022-09-06T16:09:10.181Z,3.05
2022-09-06T16:11:37.227Z,3.10
2022-09-06T16:14:05.736Z,3.10
2022-09-06T16:16:32.842Z,3.13
2022-09-06T16:18:59.735Z,3.30
2022-09-06T16:21:29.636Z,3.40
2022-09-06T16:24:05.404Z,3.50
2022-09-06T16:26:34.503Z,3.50
2022-09-06T16:29:02.427Z,3.50
2022-09-06T16:31:29.677Z,3.50
2022-09-06T16:33:57.652Z,3.40
2022-09-06T16:36:25.359Z,3.38
2022-09-06T16:38:52.417Z,3.67
2022-09-06T16:41:26.750Z,3.63
2022-09-06T16:43:53.763Z,3.50
2022-09-06T16:46:24.646Z,3.75
2022-09-06T16:48:52.097Z,3.60
2022-09-06T16:51:21.104Z,3.97
2022-09-06T16:53:49.163Z,3.67
2022-09-06T16:56:18.341Z,3.60
2022-09-06T16:58:52.565Z,3.65
2022-09-06T17:01:20.146Z,3.50
2022-09-06T17:03:47.035Z,4.22
2022-09-06T17:06:14.858Z,3.50
2022-09-06T17:08:41.548Z,3.83
2022-09-06T17:11:11.524Z,3.80
2022-09-06T17:13:38.526Z,3.80
2022-09-06T17:16:06.023Z,4.13
2022-09-06T17:18:33.107Z,4.00
2022-09-06T17:21:00.674Z,3.88
2022-09-06T17:23:28.694Z,3.72
2022-09-06T17:25:55.436Z,3.75
2022-09-06T17:28:22.463Z,3.72
2022-09-06T17:30:50.068Z,3.83
2022-09-06T17:33:16.809Z,4.10
2022-09-06T17:35:47.536Z,4.05
2022-09-06T17:38:15.200Z,3.90
2022-09-06T17:40:42.043Z,4.00
2022-09-06T17:43:09.264Z,4.13
2022-09-06T17:45:38.187Z,3.83
2022-09-06T17:48:05.238Z,3.80
2022-09-06T17:50:32.957Z,3.67
2022-09-06T17:52:59.860Z,3.90
2022-09-06T17:55:27.097Z,3.90
2022-09-06T17:57:54.164Z,3.70
2022-09-06T18:00:20.883Z,3.90
2022-09-06T18:02:47.610Z,3.53
2022-09-06T18:05:15.198Z,3.67
2022-09-06T18:07:41.928Z,3.67
2022-09-06T18:10:09.293Z,3.83
2022-09-06T18:12:36.133Z,3.50
2022-09-06T18:15:02.764Z,3.80
2022-09-06T18:17:29.448Z,4.00
2022-09-06T18:19:57.113Z,3.40
2022-09-06T18:22:24.673Z,3.40
2022-09-06T18:24:53.989Z,3.50
2022-09-06T18:27:24.439Z,3.40
2022-09-06T18:29:51.080Z,3.53
2022-09-06T18:32:17.844Z,3.80
2022-09-06T18:34:44.751Z,3.65
2022-09-06T18:37:11.498Z,3.45
2022-09-06T18:39:38.191Z,3.65
2022-09-06T18:42:05.180Z,3.20
2022-09-06T18:44:33.331Z,3.70
2022-09-06T18:47:06.166Z,3.60
2022-09-06T18:49:33.999Z,3.70
2022-09-06T18:52:05.051Z,3.60
2022-09-06T18:54:32.750Z,3.80
2022-09-06T18:56:59.428Z,4.20
2022-09-06T18:59:26.693Z,3.90
2022-09-06T19:01:53.855Z,3.63
2022-09-06T19:04:21.059Z,3.80
2022-09-06T19:06:47.768Z,4.00
2022-09-06T19:09:16.657Z,3.90
2022-09-06T19:11:44.217Z,3.92
2022-09-06T19:14:11.515Z,4.30
2022-09-06T19:16:38.648Z,4.30
2022-09-06T19:19:07.609Z,4.65
2022-09-06T19:21:39.184Z,4.13
2022-09-06T19:24:09.634Z,4.32
2022-09-06T19:26:42.426Z,4.30
2022-09-06T19:29:13.901Z,4.22
2022-09-06T19:31:41.322Z,4.43
2022-09-06T19:34:08.021Z,4.38
2022-09-06T19:36:35.316Z,4.00
2022-09-06T19:39:08.848Z,4.60
2022-09-06T19:41:38.464Z,4.40
2022-09-06T19:44:06.173Z,4.65
2022-09-06T19:46:33.255Z,4.88
2022-09-06T19:49:00.201Z,4.50
2022-09-06T19:51:26.952Z,4.32
2022-09-06T19:53:56.173Z,4.53
2022-09-06T19:56:26.185Z,4.05
2022-09-06T19:58:57.852Z,4.13
2022-09-06T20:01:26.825Z,4.43
2022-09-06T20:03:53.472Z,4.40
2022-09-06T20:06:20.282Z,4.80
2022-09-06T20:08:50.895Z,4.80
2022-09-06T20:11:19.280Z,4.93
2022-09-06T20:13:46.015Z,5.38
2022-09-06T20:16:13.798Z,5.40
2022-09-06T20:18:40.593Z,5.50
2022-09-06T20:21:07.929Z,5.43
2022-09-06T20:23:36.214Z,5.13
2022-09-06T20:26:09.003Z,5.18
2022-09-06T20:28:36.199Z,5.38
2022-09-06T20:31:09.641Z,4.95
2022-09-06T20:33:38.360Z,5.03
2022-09-06T20:36:09.239Z,5.22
2022-09-06T20:38:38.992Z,5.32
2022-09-06T20:41:16.926Z,5.18
2022-09-06T20:43:43.828Z,4.55
2022-09-06T20:46:18.597Z,4.32
2022-09-06T20:48:46.875Z,4.07
2022-09-06T20:51:17.905Z,4.30
2022-09-06T20:53:46.510Z,4.25
2022-09-06T20:56:15.926Z,4.47
2022-09-06T20:58:46.911Z,4.50
2022-09-06T21:01:15.227Z,4.30
2022-09-06T21:03:42.855Z,4.75
2022-09-06T21:06:11.313Z,4.55
2022-09-06T21:08:42.621Z,5.53
2022-09-06T21:11:10.671Z,5.65
2022-09-06T21:13:37.667Z,4.90
2022-09-06T21:16:05.138Z,5.63
2022-09-06T21:18:33.077Z,5.65
2022-09-06T21:21:05.575Z,5.72
2022-09-06T21:23:37.371Z,5.90
2022-09-06T21:26:10.046Z,5.40
2022-09-06T21:28:39.005Z,6.13
2022-09-06T21:31:12.133Z,5.63
2022-09-06T21:33:43.596Z,5.72
2022-09-06T21:36:18.300Z,5.18
2022-09-06T21:38:47.789Z,5.93
2022-09-06T21:41:16.428Z,6.10
2022-09-06T21:43:43.792Z,6.82
2022-09-06T21:46:22.046Z,6.43
2022-09-06T21:48:51.158Z,6.47
2022-09-06T21:51:20.345Z,6.50
2022-09-06T21:53:48.913Z,5.95
2022-09-06T21:56:16.403Z,6.03
2022-09-06T21:58:43.116Z,6.10
2022-09-06T22:01:10.236Z,6.47
2022-09-06T22:03:38.478Z,6.10
2022-09-06T22:06:25.138Z,6.55
2022-09-06T22:08:52.552Z,5.97
2022-09-06T22:11:20.787Z,6.57
2022-09-06T22:13:48.228Z,6.50
2022-09-06T22:16:17.408Z,5.95
2022-09-06T22:18:44.572Z,5.57
2022-09-06T22:21:13.799Z,6.07
2022-09-06T22:23:40.759Z,6.32
2022-09-06T22:26:10.912Z,6.63
2022-09-06T22:28:38.076Z,6.30
2022-09-06T22:31:05.284Z,6.35
2022-09-06T22:33:32.701Z,5.80
2022-09-06T22:35:59.464Z,7.65
2022-09-06T22:38:27.521Z,7.65
2022-09-06T22:40:54.342Z,6.80
2022-09-06T22:43:21.117Z,6.70
2022-09-06T22:45:51.804Z,7.65
2022-09-06T22:48:19.479Z,7.80
2022-09-06T22:50:47.351Z,6.90
2022-09-06T22:53:14.059Z,7.50
2022-09-06T22:55:46.750Z,8.32
2022-09-06T22:58:13.547Z,7.70
2022-09-06T23:00:40.195Z,7.88
2022-09-06T23:03:07.080Z,8.70
2022-09-06T23:05:33.822Z,8.75
2022-09-06T23:08:00.573Z,8.60
2022-09-06T23:10:30.837Z,8.10
2022-09-06T23:12:58.409Z,8.27
2022-09-06T23:15:25.712Z,7.60
2022-09-06T23:17:52.577Z,8.95
2022-09-06T23:20:19.531Z,7.60
2022-09-06T23:22:47.363Z,8.98
2022-09-06T23:25:14.077Z,8.45
2022-09-06T23:27:40.811Z,7.82
2022-09-06T23:30:08.291Z,8.43
2022-09-06T23:32:35.020Z,7.82
2022-09-06T23:35:01.692Z,8.65
2022-09-06T23:37:28.436Z,8.90
2022-09-06T23:39:55.074Z,10.23
2022-09-06T23:42:21.979Z,9.27
2022-09-06T23:44:49.156Z,9.25
2022-09-06T23:47:16.135Z,9.27
2022-09-06T23:49:42.825Z,9.40
2022-09-06T23:52:09.661Z,9.13
2022-09-06T23:54:36.292Z,9.40
2022-09-06T23:57:03.099Z,9.65
2022-09-06T23:59:29.748Z,9.63
